createdAt,value
2023-04-19T00:00:06.212Z,0.00
2023-04-19T00:01:06.181Z,0.00
2023-04-19T00:02:06.291Z,0.00
2023-04-19T00:03:06.431Z,0.00
2023-04-19T00:04:06.363Z,0.00
2023-04-19T00:05:06.389Z,0.00
2023-04-19T00:06:06.122Z,0.00
2023-04-19T00:07:06.091Z,0.00
2023-04-19T00:08:06.063Z,0.00
2023-04-19T00:09:06.065Z,0.00
2023-04-19T00:10:06.060Z,0.00
2023-04-19T00:11:06.097Z,0.00
2023-04-19T00:12:06.024Z,0.00
2023-04-19T00:13:06.404Z,0.00
2023-04-19T00:14:06.022Z,0.00
2023-04-19T00:15:05.995Z,0.00
2023-04-19T00:16:06.047Z,0.00
2023-04-19T00:17:06.066Z,0.00
2023-04-19T00:18:06.010Z,0.00
2023-04-19T00:19:05.992Z,0.00
2023-04-19T00:20:05.940Z,0.00
2023-04-19T00:21:05.980Z,0.00
2023-04-19T00:22:05.924Z,0.00
2023-04-19T00:23:05.930Z,0.00
2023-04-19T00:24:05.928Z,0.00
2023-04-19T00:25:05.897Z,0.00
2023-04-19T00:26:05.875Z,0.00
2023-04-19T00:27:05.900Z,0.00
2023-04-19T00:28:06.012Z,0.00
2023-04-19T00:29:05.862Z,0.00
2023-04-19T00:30:05.870Z,0.00
2023-04-19T00:31:05.937Z,0.00
2023-04-19T00:32:05.856Z,0.00
2023-04-19T00:33:05.879Z,0.00
2023-04-19T00:34:05.809Z,0.00
2023-04-19T00:35:05.823Z,0.00
2023-04-19T00:36:05.765Z,0.00
2023-04-19T00:37:05.763Z,0.00
2023-04-19T00:38:05.787Z,0.00
2023-04-19T00:39:05.744Z,0.00
2023-04-19T00:40:05.751Z,0.00
2023-04-19T00:41:05.722Z,0.00
2023-04-19T00:42:05.719Z,0.00
2023-04-19T00:43:05.762Z,0.00
2023-04-19T00:44:06.754Z,0.00
2023-04-19T00:45:05.676Z,0.00
2023-04-19T00:46:05.718Z,0.00
2023-04-19T00:47:05.669Z,0.00
2023-04-19T00:48:05.691Z,0.00
2023-04-19T00:49:05.643Z,0.00
2023-04-19T00:50:05.618Z,0.00
2023-04-19T00:51:05.622Z,0.00
2023-04-19T00:52:05.610Z,0.00
2023-04-19T00:53:05.633Z,0.00
2023-04-19T00:54:05.578Z,0.00
2023-04-19T00:55:05.579Z,0.00
2023-04-19T00:56:05.572Z,0.00
2023-04-19T00:57:05.590Z,0.00
2023-04-19T00:58:05.531Z,0.00
2023-04-19T00:59:05.545Z,0.00
2023-04-19T01:00:05.552Z,0.00
2023-04-19T01:01:05.584Z,0.00
2023-04-19T01:02:05.526Z,0.00
2023-04-19T01:03:05.568Z,0.00
2023-04-19T01:04:05.595Z,0.00
2023-04-19T01:05:05.573Z,0.00
2023-04-19T01:06:05.437Z,0.00
2023-04-19T01:07:05.453Z,0.00
2023-04-19T01:08:05.435Z,0.00
2023-04-19T01:09:05.423Z,0.00
2023-04-19T01:10:05.456Z,0.00
2023-04-19T01:11:05.421Z,0.00
2023-04-19T01:12:05.381Z,0.00
2023-04-19T01:13:05.392Z,0.00
2023-04-19T01:14:05.364Z,0.00
2023-04-19T01:15:07.391Z,0.00
2023-04-19T01:16:05.359Z,0.00
2023-04-19T01:17:05.354Z,0.00
2023-04-19T01:18:05.448Z,0.00
2023-04-19T01:19:05.336Z,0.00
2023-04-19T01:20:05.307Z,0.00
2023-04-19T01:21:05.293Z,0.00
2023-04-19T01:22:15.329Z,0.00
2023-04-19T01:23:05.517Z,0.00
2023-04-19T01:24:05.243Z,0.00
2023-04-19T01:25:05.281Z,0.00
2023-04-19T01:26:05.250Z,0.00
2023-04-19T01:27:11.564Z,0.00
2023-04-19T01:28:05.213Z,0.00
2023-04-19T01:29:05.222Z,0.00
2023-04-19T01:30:05.188Z,0.00
2023-04-19T01:31:05.313Z,0.00
2023-04-19T01:32:15.241Z,0.00
2023-04-19T01:33:05.207Z,0.00
2023-04-19T01:34:05.230Z,0.00
2023-04-19T01:35:05.152Z,0.00
2023-04-19T01:36:15.185Z,0.00
2023-04-19T01:37:05.095Z,0.00
2023-04-19T01:38:16.358Z,0.00
2023-04-19T01:39:05.111Z,0.00
2023-04-19T01:40:05.090Z,0.00
2023-04-19T01:41:05.120Z,0.00
2023-04-19T01:42:05.098Z,0.00
2023-04-19T01:43:05.075Z,0.00
2023-04-19T01:44:05.093Z,0.00
2023-04-19T01:45:05.079Z,0.00
2023-04-19T01:46:05.665Z,0.00
2023-04-19T01:47:05.095Z,0.00
2023-04-19T01:48:05.041Z,0.00
2023-04-19T01:49:05.031Z,0.00
2023-04-19T01:50:04.999Z,0.00
2023-04-19T01:51:05.054Z,0.00
2023-04-19T01:52:04.970Z,0.00
2023-04-19T01:53:05.024Z,0.00
2023-04-19T01:54:04.976Z,0.00
2023-04-19T01:55:04.962Z,0.00
2023-04-19T01:56:04.928Z,0.00
2023-04-19T01:57:04.929Z,0.00
2023-04-19T01:58:04.927Z,0.00
2023-04-19T01:59:04.905Z,0.00
2023-04-19T02:00:04.889Z,0.00
2023-04-19T02:01:04.946Z,0.00
2023-04-19T02:02:04.988Z,0.00
2023-04-19T02:03:05.014Z,0.00
2023-04-19T02:04:05.112Z,0.00
2023-04-19T02:05:04.842Z,0.00
2023-04-19T02:06:04.849Z,0.00
2023-04-19T02:07:04.844Z,0.00
2023-04-19T02:08:04.819Z,0.00
2023-04-19T02:09:04.840Z,0.00
2023-04-19T02:10:04.773Z,0.00
2023-04-19T02:11:04.753Z,0.00
2023-04-19T02:12:04.740Z,0.00
2023-04-19T02:13:04.747Z,0.00
2023-04-19T02:14:04.736Z,0.00
2023-04-19T02:15:04.703Z,0.00
2023-04-19T02:16:04.736Z,0.00
2023-04-19T02:17:06.100Z,0.00
2023-04-19T02:18:04.776Z,0.00
2023-04-19T02:19:04.707Z,0.00
2023-04-19T02:20:04.734Z,0.00
2023-04-19T02:21:04.679Z,0.00
2023-04-19T02:22:04.666Z,0.00
2023-04-19T02:23:04.598Z,0.00
2023-04-19T02:24:04.649Z,0.00
2023-04-19T02:25:04.636Z,0.00
2023-04-19T02:26:04.603Z,0.00
2023-04-19T02:27:04.593Z,0.00
2023-04-19T02:28:04.611Z,0.00
2023-04-19T02:29:06.364Z,0.00
2023-04-19T02:30:04.574Z,0.00
2023-04-19T02:31:04.561Z,0.00
2023-04-19T02:32:04.670Z,0.00
2023-04-19T02:33:04.585Z,0.00
2023-04-19T02:34:04.506Z,0.00
2023-04-19T02:35:04.518Z,0.00
2023-04-19T02:36:04.486Z,0.00
2023-04-19T02:37:04.500Z,0.00
2023-04-19T02:38:04.493Z,0.00
2023-04-19T02:39:04.476Z,0.00
2023-04-19T02:40:04.484Z,0.00
2023-04-19T02:41:04.497Z,0.00
2023-04-19T02:42:04.456Z,0.00
2023-04-19T02:43:04.415Z,0.00
2023-04-19T02:44:04.445Z,0.00
2023-04-19T02:45:04.374Z,0.00
2023-04-19T02:46:04.430Z,0.00
2023-04-19T02:47:04.368Z,0.00
2023-04-19T02:48:05.631Z,0.00
2023-04-19T02:49:04.335Z,0.00
2023-04-19T02:50:04.345Z,0.00
2023-04-19T02:51:04.352Z,0.00
2023-04-19T02:52:04.315Z,0.00
2023-04-19T02:53:04.339Z,0.00
2023-04-19T02:54:04.316Z,0.00
2023-04-19T02:55:04.272Z,0.00
2023-04-19T02:56:04.302Z,0.00
2023-04-19T02:57:04.292Z,0.00
2023-04-19T02:58:04.278Z,0.00
2023-04-19T02:59:04.240Z,0.00
2023-04-19T03:00:04.242Z,0.00
2023-04-19T03:01:04.282Z,0.00
2023-04-19T03:02:04.280Z,0.00
2023-04-19T03:03:04.425Z,0.00
2023-04-19T03:04:04.216Z,0.00
2023-04-19T03:05:04.188Z,0.00
2023-04-19T03:06:04.238Z,0.00
2023-04-19T03:07:04.162Z,0.00
2023-04-19T03:08:04.152Z,0.00
2023-04-19T03:09:04.147Z,0.00
2023-04-19T03:10:04.198Z,0.00
2023-04-19T03:11:04.105Z,0.00
2023-04-19T03:12:04.121Z,0.00
2023-04-19T03:13:04.094Z,0.00
2023-04-19T03:14:04.142Z,0.00
2023-04-19T03:15:04.077Z,0.00
2023-04-19T03:16:04.081Z,0.00
2023-04-19T03:17:04.093Z,0.00
2023-04-19T03:18:04.255Z,0.00
2023-04-19T03:19:04.131Z,0.00
2023-04-19T03:20:04.075Z,0.00
2023-04-19T03:21:04.024Z,0.00
2023-04-19T03:22:03.990Z,0.00
2023-04-19T03:23:03.981Z,0.00
2023-04-19T03:24:04.071Z,0.00
2023-04-19T03:25:03.984Z,0.00
2023-04-19T03:26:04.033Z,0.00
2023-04-19T03:27:03.958Z,0.00
2023-04-19T03:28:03.931Z,0.00
2023-04-19T03:29:03.908Z,0.00
2023-04-19T03:30:03.925Z,0.00
2023-04-19T03:31:03.940Z,0.00
2023-04-19T03:32:03.900Z,0.00
2023-04-19T03:33:03.926Z,0.00
2023-04-19T03:34:03.864Z,0.00
2023-04-19T03:35:03.864Z,0.00
2023-04-19T03:36:03.911Z,0.00
2023-04-19T03:37:03.832Z,0.00
2023-04-19T03:38:03.832Z,0.00
2023-04-19T03:39:03.833Z,0.00
2023-04-19T03:40:03.821Z,0.00
2023-04-19T03:41:03.759Z,0.00
2023-04-19T03:42:03.787Z,0.00
2023-04-19T03:43:03.762Z,0.00
2023-04-19T03:44:03.764Z,0.00
2023-04-19T03:45:03.716Z,0.00
2023-04-19T03:46:03.776Z,0.00
2023-04-19T03:47:03.744Z,4.00
2023-04-19T03:48:03.803Z,4.00
2023-04-19T03:49:03.706Z,0.00
2023-04-19T03:50:03.721Z,0.00
2023-04-19T03:51:03.711Z,4.00
2023-04-19T03:52:03.680Z,4.00
2023-04-19T03:53:03.648Z,4.00
2023-04-19T03:54:03.677Z,8.00
2023-04-19T03:55:03.637Z,4.00
2023-04-19T03:56:03.667Z,4.00
2023-04-19T03:57:04.085Z,4.00
2023-04-19T03:58:03.614Z,8.00
2023-04-19T03:59:03.625Z,8.00
2023-04-19T04:00:03.717Z,12.00
2023-04-19T04:01:03.588Z,16.00
2023-04-19T04:02:03.760Z,20.00
2023-04-19T04:03:03.886Z,20.00
2023-04-19T04:04:05.129Z,24.00
2023-04-19T04:05:03.675Z,28.00
2023-04-19T04:06:03.570Z,32.00
2023-04-19T04:07:03.558Z,40.00
2023-04-19T04:08:03.550Z,48.00
2023-04-19T04:09:04.474Z,52.00
2023-04-19T04:10:03.500Z,60.00
2023-04-19T04:11:03.558Z,68.00
2023-04-19T04:12:03.472Z,80.00
2023-04-19T04:13:03.509Z,92.00
2023-04-19T04:14:03.516Z,104.00
2023-04-19T04:15:03.502Z,120.00
2023-04-19T04:16:03.458Z,136.00
2023-04-19T04:17:03.416Z,156.00
2023-04-19T04:18:03.473Z,176.00
2023-04-19T04:19:03.412Z,196.00
2023-04-19T04:20:03.419Z,220.00
2023-04-19T04:21:03.537Z,240.00
2023-04-19T04:22:03.369Z,268.00
2023-04-19T04:23:03.380Z,292.00
2023-04-19T04:24:03.341Z,316.00
2023-04-19T04:25:03.339Z,344.00
2023-04-19T04:26:03.371Z,372.00
2023-04-19T04:27:03.419Z,400.00
2023-04-19T04:28:03.316Z,432.00
2023-04-19T04:29:03.415Z,460.00
2023-04-19T04:30:03.326Z,488.00
2023-04-19T04:31:03.274Z,516.00
2023-04-19T04:32:03.355Z,544.00
2023-04-19T04:33:03.347Z,572.00
2023-04-19T04:34:03.283Z,600.00
2023-04-19T04:35:03.354Z,624.00
2023-04-19T04:36:03.268Z,652.00
2023-04-19T04:37:03.247Z,680.00
2023-04-19T04:38:06.400Z,704.00
2023-04-19T04:39:04.283Z,740.00
2023-04-19T04:40:03.209Z,772.00
2023-04-19T04:41:03.255Z,808.00
2023-04-19T04:42:03.178Z,844.00
2023-04-19T04:43:03.203Z,880.00
2023-04-19T04:44:11.452Z,916.00
2023-04-19T04:45:04.127Z,956.00
2023-04-19T04:46:03.343Z,996.00
2023-04-19T04:47:03.126Z,1036.00
2023-04-19T04:48:03.235Z,1076.00
2023-04-19T04:49:03.115Z,1120.00
2023-04-19T04:50:03.132Z,1160.00
2023-04-19T04:51:03.161Z,1204.00
2023-04-19T04:52:03.142Z,1248.00
2023-04-19T04:53:03.068Z,1288.00
2023-04-19T04:54:03.128Z,1328.00
2023-04-19T04:55:03.050Z,1372.00
2023-04-19T04:56:03.108Z,1408.00
2023-04-19T04:57:03.085Z,1452.00
2023-04-19T04:58:03.038Z,1492.00
2023-04-19T04:59:03.038Z,1536.00
2023-04-19T05:00:03.013Z,1580.00
2023-04-19T05:01:03.165Z,1624.00
2023-04-19T05:02:03.016Z,1672.00
2023-04-19T05:03:03.470Z,1716.00
2023-04-19T05:04:03.022Z,1760.00
2023-04-19T05:05:02.943Z,1804.00
2023-04-19T05:06:02.968Z,1852.00
2023-04-19T05:07:02.922Z,1900.00
2023-04-19T05:08:02.897Z,1944.00
2023-04-19T05:09:03.052Z,1992.00
2023-04-19T05:10:02.970Z,2040.00
2023-04-19T05:11:03.164Z,2088.00
2023-04-19T05:12:02.915Z,2140.00
2023-04-19T05:13:02.865Z,2192.00
2023-04-19T05:14:02.873Z,2240.00
2023-04-19T05:15:02.903Z,2284.00
2023-04-19T05:16:03.008Z,2336.00
2023-04-19T05:17:03.642Z,2396.00
2023-04-19T05:18:02.871Z,2456.00
2023-04-19T05:19:02.762Z,2520.00
2023-04-19T05:20:02.760Z,2576.00
2023-04-19T05:21:03.485Z,2636.00
2023-04-19T05:22:02.743Z,2680.00
2023-04-19T05:23:02.845Z,2732.00
2023-04-19T05:24:02.713Z,2776.00
2023-04-19T05:25:02.676Z,2836.00
2023-04-19T05:26:02.710Z,2908.00
2023-04-19T05:27:02.664Z,3000.00
2023-04-19T05:28:02.722Z,3076.00
2023-04-19T05:29:02.665Z,3148.00
2023-04-19T05:30:02.638Z,3248.00
2023-04-19T05:31:02.798Z,3332.00
2023-04-19T05:32:02.621Z,3428.00
2023-04-19T05:33:02.736Z,3528.00
2023-04-19T05:34:02.666Z,3596.00
2023-04-19T05:35:02.630Z,3648.00
2023-04-19T05:36:02.624Z,3728.00
2023-04-19T05:37:02.566Z,3808.00
2023-04-19T05:38:02.567Z,3908.00
2023-04-19T05:39:02.646Z,3996.00
2023-04-19T05:40:02.550Z,4076.00
2023-04-19T05:41:02.586Z,4172.00
2023-04-19T05:42:02.529Z,4296.00
2023-04-19T05:43:02.563Z,4432.00
2023-04-19T05:44:02.521Z,4508.00
2023-04-19T05:45:04.066Z,4576.00
2023-04-19T05:46:02.571Z,4668.00
2023-04-19T05:47:02.487Z,4768.00
2023-04-19T05:48:02.523Z,4776.00
2023-04-19T05:49:02.453Z,4876.00
2023-04-19T05:50:02.451Z,4932.00
2023-04-19T05:51:02.446Z,4856.00
2023-04-19T05:52:02.454Z,4864.00
2023-04-19T05:53:02.401Z,4976.00
2023-04-19T05:54:02.442Z,4952.00
2023-04-19T05:55:02.343Z,4988.00
2023-04-19T05:56:02.391Z,5148.00
2023-04-19T05:57:02.363Z,5300.00
2023-04-19T05:58:02.394Z,5416.00
2023-04-19T05:59:02.322Z,5720.00
2023-04-19T06:00:02.728Z,6020.00
2023-04-19T06:01:02.400Z,6012.00
2023-04-19T06:02:02.517Z,5720.00
2023-04-19T06:03:02.552Z,6508.00
2023-04-19T06:04:02.591Z,6632.00
2023-04-19T06:05:04.900Z,6728.00
2023-04-19T06:06:03.331Z,6852.00
2023-04-19T06:07:04.399Z,6928.00
2023-04-19T06:08:03.110Z,6924.00
2023-04-19T06:09:02.305Z,6912.00
2023-04-19T06:10:02.253Z,6932.00
2023-04-19T06:11:08.260Z,6980.00
2023-04-19T06:12:03.270Z,7016.00
2023-04-19T06:13:02.206Z,7080.00
2023-04-19T06:14:02.207Z,7120.00
2023-04-19T06:15:02.195Z,7196.00
2023-04-19T06:16:02.241Z,7272.00
2023-04-19T06:17:02.137Z,7360.00
2023-04-19T06:18:02.232Z,7404.00
2023-04-19T06:19:02.129Z,7444.00
2023-04-19T06:20:02.112Z,7468.00
2023-04-19T06:21:02.185Z,7320.00
2023-04-19T06:22:02.111Z,7212.00
2023-04-19T06:23:02.731Z,7212.00
2023-04-19T06:24:02.081Z,7156.00
2023-04-19T06:25:02.408Z,7268.00
2023-04-19T06:26:02.039Z,7304.00
2023-04-19T06:27:02.132Z,7404.00
2023-04-19T06:28:02.057Z,7384.00
2023-04-19T06:29:02.034Z,7016.00
2023-04-19T06:30:01.995Z,7056.00
2023-04-19T06:31:02.011Z,7000.00
2023-04-19T06:32:02.074Z,7012.00
2023-04-19T06:33:02.006Z,6732.00
2023-04-19T06:34:01.972Z,6828.00
2023-04-19T06:35:01.978Z,6548.00
2023-04-19T06:36:01.953Z,6492.00
2023-04-19T06:37:01.938Z,6424.00
2023-04-19T06:38:01.937Z,6400.00
2023-04-19T06:39:01.935Z,6508.00
2023-04-19T06:40:01.928Z,6552.00
2023-04-19T06:41:01.943Z,6400.00
2023-04-19T06:42:01.866Z,6600.00
2023-04-19T06:43:01.988Z,6624.00
2023-04-19T06:44:01.863Z,6396.00
2023-04-19T06:45:01.844Z,6416.00
2023-04-19T06:46:02.009Z,6532.00
2023-04-19T06:47:01.863Z,6356.00
2023-04-19T06:48:01.913Z,6520.00
2023-04-19T06:49:01.851Z,6512.00
2023-04-19T06:50:01.793Z,6572.00
2023-04-19T06:51:01.799Z,6704.00
2023-04-19T06:52:01.807Z,6744.00
2023-04-19T06:53:04.102Z,6904.00
2023-04-19T06:54:01.805Z,6940.00
2023-04-19T06:55:01.763Z,7040.00
2023-04-19T06:56:01.803Z,7060.00
2023-04-19T06:57:01.782Z,7124.00
2023-04-19T06:58:01.859Z,7108.00
2023-04-19T06:59:01.807Z,7316.00
2023-04-19T07:00:01.760Z,7312.00
2023-04-19T07:01:01.755Z,7516.00
2023-04-19T07:02:01.705Z,7800.00
2023-04-19T07:03:01.813Z,7832.00
2023-04-19T07:04:01.885Z,7852.00
2023-04-19T07:05:01.644Z,7884.00
2023-04-19T07:06:01.679Z,7968.00
2023-04-19T07:07:01.641Z,8008.00
2023-04-19T07:08:01.606Z,7916.00
2023-04-19T07:09:01.649Z,7632.00
2023-04-19T07:10:01.591Z,7692.00
2023-04-19T07:11:01.722Z,7616.00
2023-04-19T07:12:01.545Z,7616.00
2023-04-19T07:13:01.559Z,7520.00
2023-04-19T07:14:01.547Z,7568.00
2023-04-19T07:15:01.553Z,7336.00
2023-04-19T07:16:01.619Z,7288.00
2023-04-19T07:17:01.652Z,7580.00
2023-04-19T07:18:01.536Z,7660.00
2023-04-19T07:19:01.483Z,7328.00
2023-04-19T07:20:01.482Z,7308.00
2023-04-19T07:21:02.196Z,7764.00
2023-04-19T07:22:01.525Z,7244.00
2023-04-19T07:23:01.445Z,7452.00
2023-04-19T07:24:01.439Z,7824.00
2023-04-19T07:25:01.454Z,7588.00
2023-04-19T07:26:01.432Z,8408.00
2023-04-19T07:27:01.547Z,8316.00
2023-04-19T07:28:11.402Z,8580.00
2023-04-19T07:29:02.136Z,8452.00
2023-04-19T07:30:01.351Z,8516.00
2023-04-19T07:31:03.125Z,8888.00
2023-04-19T07:32:01.383Z,9012.00
2023-04-19T07:33:01.380Z,9092.00
2023-04-19T07:34:01.324Z,9132.00
2023-04-19T07:35:01.337Z,9600.00
2023-04-19T07:36:01.340Z,9768.00
2023-04-19T07:37:01.296Z,9908.00
2023-04-19T07:38:01.267Z,10136.00
2023-04-19T07:39:01.287Z,10324.00
2023-04-19T07:40:01.260Z,10572.00
2023-04-19T07:41:01.244Z,10660.00
2023-04-19T07:42:01.227Z,10684.00
2023-04-19T07:43:01.239Z,10728.00
2023-04-19T07:44:01.282Z,10764.00
2023-04-19T07:45:01.197Z,10808.00
2023-04-19T07:46:01.224Z,11044.00
2023-04-19T07:47:01.220Z,11008.00
2023-04-19T07:48:01.199Z,10976.00
2023-04-19T07:49:01.168Z,10736.00
2023-04-19T07:50:01.149Z,10676.00
2023-04-19T07:51:01.198Z,10836.00
2023-04-19T07:52:01.205Z,11128.00
2023-04-19T07:53:01.122Z,10896.00
2023-04-19T07:54:01.105Z,11212.00
2023-04-19T07:55:01.081Z,11652.00
2023-04-19T07:56:01.090Z,12216.00
2023-04-19T07:57:01.108Z,12452.00
2023-04-19T07:58:01.198Z,13084.00
2023-04-19T07:59:08.619Z,12676.00
2023-04-19T08:00:02.025Z,13108.00
2023-04-19T08:01:01.085Z,13108.00
2023-04-19T08:02:01.136Z,13808.00
2023-04-19T08:03:01.186Z,12992.00
2023-04-19T08:04:01.349Z,13024.00
2023-04-19T08:05:01.257Z,14136.00
2023-04-19T08:06:00.965Z,14528.00
2023-04-19T08:07:00.956Z,14252.00
2023-04-19T08:08:00.950Z,14752.00
2023-04-19T08:09:00.958Z,14848.00
2023-04-19T08:10:01.018Z,14912.00
2023-04-19T08:11:02.039Z,15008.00
2023-04-19T08:12:00.923Z,15040.00
2023-04-19T08:13:05.127Z,15008.00
2023-04-19T08:14:26.860Z,14976.00
2023-04-19T08:15:14.904Z,14288.00
2023-04-19T08:18:00.857Z,14388.00
2023-04-19T08:19:00.841Z,14356.00
2023-04-19T08:20:00.828Z,13944.00
2023-04-19T08:21:00.809Z,13976.00
2023-04-19T08:22:00.783Z,13888.00
2023-04-19T08:23:10.341Z,13808.00
2023-04-19T08:24:01.766Z,13696.00
2023-04-19T08:25:00.773Z,13548.00
2023-04-19T08:26:00.753Z,13612.00
2023-04-19T08:27:00.757Z,13640.00
2023-04-19T08:28:00.745Z,12804.00
2023-04-19T08:29:01.202Z,13528.00
2023-04-19T08:30:00.686Z,13036.00
2023-04-19T08:31:00.733Z,13432.00
2023-04-19T08:32:00.735Z,13416.00
2023-04-19T08:33:00.751Z,13420.00
2023-04-19T08:34:00.692Z,13380.00
2023-04-19T08:35:00.670Z,13416.00
2023-04-19T08:36:00.636Z,13440.00
2023-04-19T08:37:04.368Z,13372.00
2023-04-19T08:38:01.992Z,12040.00
2023-04-19T08:39:05.707Z,13368.00
2023-04-19T08:40:01.649Z,12528.00
2023-04-19T08:41:00.612Z,13220.00
2023-04-19T08:42:05.952Z,13236.00
2023-04-19T08:43:01.586Z,13188.00
2023-04-19T08:44:00.565Z,13104.00
2023-04-19T08:46:00.644Z,12248.00
2023-04-19T08:47:00.523Z,12408.00
2023-04-19T08:48:02.095Z,12648.00
2023-04-19T08:49:00.512Z,12540.00
2023-04-19T08:50:13.890Z,12452.00
2023-04-19T08:51:05.536Z,11552.00
2023-04-19T08:52:00.474Z,12092.00
2023-04-19T08:53:09.012Z,12080.00
2023-04-19T08:54:01.451Z,11912.00
2023-04-19T08:55:00.446Z,11888.00
2023-04-19T08:57:00.456Z,11740.00
2023-04-19T08:58:00.396Z,11668.00
2023-04-19T08:59:19.124Z,11596.00
2023-04-19T09:00:01.492Z,11540.00
2023-04-19T09:01:00.437Z,11480.00
2023-04-19T09:02:00.519Z,11416.00
2023-04-19T09:03:00.566Z,11360.00
2023-04-19T09:04:10.263Z,11308.00
2023-04-19T09:05:01.725Z,11248.00
2023-04-19T09:06:00.422Z,11200.00
2023-04-19T09:07:00.311Z,11176.00
2023-04-19T09:08:00.295Z,11136.00
2023-04-19T09:09:01.247Z,11108.00
2023-04-19T09:10:03.410Z,11096.00
2023-04-19T09:11:00.280Z,11064.00
2023-04-19T09:12:00.329Z,11032.00
2023-04-19T09:13:00.248Z,10992.00
2023-04-19T09:14:00.232Z,10992.00
2023-04-19T09:15:02.267Z,10960.00
2023-04-19T09:16:00.247Z,10948.00
2023-04-19T09:17:00.202Z,10924.00
2023-04-19T09:18:00.256Z,10916.00
2023-04-19T09:19:15.224Z,10928.00
2023-04-19T09:20:01.168Z,10892.00
2023-04-19T09:21:00.165Z,10868.00
2023-04-19T09:22:00.152Z,10880.00
2023-04-19T09:23:00.140Z,10872.00
2023-04-19T09:24:01.873Z,10848.00
2023-04-19T09:26:22.011Z,10852.00
2023-04-19T09:27:01.087Z,10852.00
2023-04-19T09:28:00.076Z,10836.00
2023-04-19T09:29:00.079Z,10832.00
2023-04-19T09:30:00.112Z,10856.00
2023-04-19T09:31:15.112Z,10848.00
2023-04-19T09:32:01.158Z,10888.00
2023-04-19T09:33:00.054Z,10880.00
2023-04-19T09:33:59.985Z,10892.00
2023-04-19T09:35:00.002Z,10916.00
2023-04-19T09:35:59.998Z,10908.00
2023-04-19T09:37:09.006Z,10904.00
2023-04-19T09:38:59.984Z,10932.00
2023-04-19T09:39:59.930Z,10956.00
2023-04-19T09:40:59.948Z,10964.00
2023-04-19T09:41:59.921Z,10960.00
2023-04-19T09:43:15.163Z,10960.00
2023-04-19T09:44:15.612Z,10960.00
2023-04-19T09:45:28.512Z,10976.00
2023-04-19T09:46:00.852Z,10972.00
2023-04-19T09:46:59.903Z,10980.00
2023-04-19T09:47:59.917Z,11016.00
2023-04-19T09:49:01.947Z,11012.00
2023-04-19T09:50:00.783Z,11028.00
2023-04-19T09:51:03.766Z,11040.00
2023-04-19T09:52:00.808Z,11084.00
2023-04-19T09:52:59.797Z,11144.00
2023-04-19T09:53:59.783Z,11152.00
2023-04-19T09:54:59.796Z,11212.00
2023-04-19T09:56:02.700Z,11276.00
2023-04-19T09:57:01.451Z,11508.00
2023-04-19T09:57:59.734Z,11944.00
2023-04-19T09:59:59.727Z,26848.00
2023-04-19T10:01:10.696Z,26528.00
2023-04-19T10:02:00.945Z,22848.00
2023-04-19T10:02:59.742Z,22752.00
2023-04-19T10:04:14.391Z,21760.00
2023-04-19T10:05:16.426Z,20800.00
2023-04-19T10:06:10.261Z,20704.00
2023-04-19T10:07:25.353Z,19072.00
2023-04-19T10:08:00.726Z,17696.00
2023-04-19T10:08:59.623Z,17568.00
2023-04-19T10:10:11.914Z,19648.00
2023-04-19T10:11:00.625Z,18272.00
2023-04-19T10:12:07.856Z,16512.00
2023-04-19T10:13:18.293Z,17792.00
2023-04-19T10:14:00.575Z,17408.00
2023-04-19T10:14:59.565Z,17120.00
2023-04-19T10:16:11.646Z,17600.00
2023-04-19T10:17:00.620Z,16896.00
2023-04-19T10:17:59.568Z,16288.00
2023-04-19T10:18:59.544Z,16416.00
2023-04-19T10:19:59.503Z,16768.00
2023-04-19T10:20:59.517Z,18688.00
2023-04-19T10:21:59.499Z,17120.00
2023-04-19T10:22:59.497Z,15776.00
2023-04-19T10:23:59.470Z,16672.00
2023-04-19T10:24:59.472Z,17216.00
2023-04-19T10:25:59.474Z,17472.00
2023-04-19T10:26:59.470Z,17472.00
2023-04-19T10:27:59.416Z,17504.00
2023-04-19T10:28:59.420Z,17760.00
2023-04-19T10:29:59.428Z,16960.00
2023-04-19T10:30:59.394Z,16864.00
2023-04-19T10:31:59.490Z,17856.00
2023-04-19T10:32:59.831Z,19008.00
2023-04-19T10:33:59.373Z,18912.00
2023-04-19T10:34:59.347Z,17984.00
2023-04-19T10:35:59.340Z,18464.00
2023-04-19T10:36:59.305Z,18784.00
2023-04-19T10:37:59.324Z,19008.00
2023-04-19T10:38:59.303Z,19840.00
2023-04-19T10:39:59.295Z,19872.00
2023-04-19T10:40:59.259Z,19936.00
2023-04-19T10:41:59.443Z,22176.00
2023-04-19T10:42:59.270Z,24736.00
2023-04-19T10:43:59.248Z,24704.00
2023-04-19T10:44:59.241Z,31520.00
2023-04-19T10:45:59.241Z,33664.00
2023-04-19T10:46:59.208Z,26624.00
2023-04-19T10:47:59.245Z,21600.00
2023-04-19T10:48:59.203Z,19584.00
2023-04-19T10:49:59.206Z,18080.00
2023-04-19T10:50:59.176Z,17248.00
2023-04-19T10:51:59.175Z,16896.00
2023-04-19T10:52:59.154Z,16768.00
2023-04-19T10:53:59.170Z,16736.00
2023-04-19T10:54:59.132Z,17024.00
2023-04-19T10:55:59.117Z,20192.00
2023-04-19T10:56:59.261Z,27968.00
2023-04-19T10:57:59.102Z,32000.00
2023-04-19T10:58:59.116Z,33856.00
2023-04-19T10:59:59.094Z,34816.00
2023-04-19T11:00:59.120Z,34144.00
2023-04-19T11:01:59.238Z,35584.00
2023-04-19T11:02:59.279Z,38368.00
2023-04-19T11:03:59.305Z,38784.00
2023-04-19T11:04:59.010Z,38784.00
2023-04-19T11:05:59.030Z,39392.00
2023-04-19T11:06:59.000Z,39392.00
2023-04-19T11:07:59.004Z,38816.00
2023-04-19T11:08:58.978Z,40864.00
2023-04-19T11:09:58.975Z,41856.00
2023-04-19T11:10:58.955Z,41024.00
2023-04-19T11:11:58.933Z,40288.00
2023-04-19T11:12:58.942Z,40704.00
2023-04-19T11:13:58.923Z,42592.00
2023-04-19T11:14:58.930Z,42656.00
2023-04-19T11:15:58.951Z,43328.00
2023-04-19T11:16:59.021Z,44704.00
2023-04-19T11:18:11.938Z,44960.00
2023-04-19T11:18:59.886Z,44352.00
2023-04-19T11:19:58.901Z,44480.00
2023-04-19T11:20:58.877Z,45152.00
2023-04-19T11:21:58.869Z,46144.00
2023-04-19T11:22:58.833Z,46880.00
2023-04-19T11:23:58.834Z,47520.00
2023-04-19T11:24:58.820Z,47136.00
2023-04-19T11:25:58.807Z,45952.00
2023-04-19T11:26:58.791Z,47488.00
2023-04-19T11:27:58.785Z,47264.00
2023-04-19T11:28:58.774Z,47136.00
2023-04-19T11:29:58.770Z,47616.00
2023-04-19T11:30:58.812Z,49216.00
2023-04-19T11:31:58.740Z,50240.00
2023-04-19T11:32:58.795Z,49568.00
2023-04-19T11:33:58.719Z,49216.00
2023-04-19T11:34:58.786Z,48640.00
2023-04-19T11:35:58.708Z,49920.00
2023-04-19T11:36:58.676Z,52672.00
2023-04-19T11:37:58.678Z,51904.00
2023-04-19T11:38:58.663Z,51008.00
2023-04-19T11:39:58.699Z,52544.00
2023-04-19T11:40:58.634Z,52544.00
2023-04-19T11:41:58.644Z,53248.00
2023-04-19T11:42:58.630Z,55360.00
2023-04-19T11:43:58.622Z,55680.00
2023-04-19T11:44:58.608Z,15724.00
2023-04-19T11:45:58.602Z,56704.00
2023-04-19T11:46:58.690Z,55744.00
2023-04-19T11:47:58.635Z,54368.00
2023-04-19T11:48:59.524Z,55168.00
2023-04-19T11:49:58.573Z,57984.00
2023-04-19T11:50:58.559Z,60320.00
2023-04-19T11:51:58.535Z,59488.00
2023-04-19T11:52:58.501Z,59712.00
2023-04-19T11:53:58.528Z,58752.00
2023-04-19T11:54:58.477Z,59872.00
2023-04-19T11:55:58.540Z,60576.00
2023-04-19T11:56:58.501Z,53504.00
2023-04-19T11:57:58.514Z,24416.00
2023-04-19T11:58:58.445Z,18528.00
2023-04-19T11:59:58.458Z,29920.00
2023-04-19T12:00:58.518Z,64000.00
2023-04-19T12:01:58.489Z,65024.00
2023-04-19T12:02:58.635Z,55456.00
2023-04-19T12:03:58.655Z,55200.00
2023-04-19T12:04:58.649Z,28384.00
2023-04-19T12:05:58.637Z,64000.00
2023-04-19T12:06:58.393Z,64896.00
2023-04-19T12:07:58.363Z,64352.00
2023-04-19T12:08:58.367Z,61088.00
2023-04-19T12:09:58.324Z,57888.00
2023-04-19T12:10:58.316Z,57760.00
2023-04-19T12:11:58.325Z,66528.00
2023-04-19T12:12:58.290Z,68832.00
2023-04-19T12:13:58.335Z,69536.00
2023-04-19T12:14:58.291Z,68768.00
2023-04-19T12:15:58.280Z,67136.00
2023-04-19T12:16:58.450Z,66976.00
2023-04-19T12:17:58.312Z,68832.00
2023-04-19T12:18:59.200Z,69120.00
2023-04-19T12:19:58.270Z,69856.00
2023-04-19T12:21:00.157Z,67776.00
2023-04-19T12:21:58.225Z,67008.00
2023-04-19T12:22:58.206Z,69408.00
2023-04-19T12:23:58.213Z,69248.00
2023-04-19T12:24:58.185Z,67168.00
2023-04-19T12:25:58.164Z,70624.00
2023-04-19T12:27:04.664Z,51392.00